sensor_id;sensor_type;location;lat;lon;timestamp;temperature;humidity
43862;DHT22;29510;52.140;5.034;2023-02-28T00:00:45;2.40;3.90
43862;DHT22;29510;52.140;5.034;2023-02-28T00:10:46;2.60;8.00
43862;DHT22;29510;52.140;5.034;2023-02-28T00:20:47;2.80;10.60
43862;DHT22;29510;52.140;5.034;2023-02-28T00:30:49;3.10;11.50
43862;DHT22;29510;52.140;5.034;2023-02-28T00:40:50;3.10;10.00
43862;DHT22;29510;52.140;5.034;2023-02-28T00:50:51;3.20;10.20
43862;DHT22;29510;52.140;5.034;2023-02-28T01:00:53;3.30;9.80
43862;DHT22;29510;52.140;5.034;2023-02-28T01:10:54;3.30;8.80
43862;DHT22;29510;52.140;5.034;2023-02-28T01:20:55;3.40;7.50
43862;DHT22;29510;52.140;5.034;2023-02-28T01:30:56;3.50;6.30
43862;DHT22;29510;52.140;5.034;2023-02-28T01:40:57;3.50;7.10
43862;DHT22;29510;52.140;5.034;2023-02-28T01:51:04;3.50;6.90
43862;DHT22;29510;52.140;5.034;2023-02-28T02:01:06;3.50;6.60
43862;DHT22;29510;52.140;5.034;2023-02-28T02:11:10;3.50;8.50
43862;DHT22;29510;52.140;5.034;2023-02-28T02:41:53;3.60;13.40
43862;DHT22;29510;52.140;5.034;2023-02-28T02:51:55;3.60;12.90
43862;DHT22;29510;52.140;5.034;2023-02-28T03:02:00;3.70;13.60
43862;DHT22;29510;52.140;5.034;2023-02-28T03:12:03;3.80;10.90
43862;DHT22;29510;52.140;5.034;2023-02-28T03:22:28;3.80;10.50
43862;DHT22;29510;52.140;5.034;2023-02-28T03:32:40;3.80;9.90
43862;DHT22;29510;52.140;5.034;2023-02-28T03:42:46;3.90;9.90
43862;DHT22;29510;52.140;5.034;2023-02-28T03:53:02;3.90;8.80
43862;DHT22;29510;52.140;5.034;2023-02-28T04:03:05;3.90;6.10
43862;DHT22;29510;52.140;5.034;2023-02-28T04:13:06;4.00;5.20
43862;DHT22;29510;52.140;5.034;2023-02-28T04:23:07;3.90;5.10
43862;DHT22;29510;52.140;5.034;2023-02-28T04:33:08;3.90;7.30
43862;DHT22;29510;52.140;5.034;2023-02-28T04:43:10;3.90;4.10
43862;DHT22;29510;52.140;5.034;2023-02-28T04:53:11;3.90;3.20
43862;DHT22;29510;52.140;5.034;2023-02-28T05:03:12;3.80;3.30
43862;DHT22;29510;52.140;5.034;2023-02-28T05:13:13;3.80;1.00
43862;DHT22;29510;52.140;5.034;2023-02-28T05:23:14;3.60;1.00
43862;DHT22;29510;52.140;5.034;2023-02-28T05:33:17;3.50;1.00
43862;DHT22;29510;52.140;5.034;2023-02-28T05:43:18;3.30;1.00
43862;DHT22;29510;52.140;5.034;2023-02-28T05:53:19;3.10;1.00
43862;DHT22;29510;52.140;5.034;2023-02-28T06:03:20;3.20;1.00
43862;DHT22;29510;52.140;5.034;2023-02-28T06:13:21;3.10;1.00
43862;DHT22;29510;52.140;5.034;2023-02-28T06:23:22;3.00;1.00
43862;DHT22;29510;52.140;5.034;2023-02-28T06:33:23;2.80;1.00
43862;DHT22;29510;52.140;5.034;2023-02-28T06:43:25;2.60;1.00
43862;DHT22;29510;52.140;5.034;2023-02-28T06:53:28;2.20;1.00
43862;DHT22;29510;52.140;5.034;2023-02-28T07:03:30;2.10;9.20
43862;DHT22;29510;52.140;5.034;2023-02-28T07:13:31;2.00;16.50
43862;DHT22;29510;52.140;5.034;2023-02-28T07:23:33;2.00;24.80
43862;DHT22;29510;52.140;5.034;2023-02-28T07:33:34;2.00;40.90
43862;DHT22;29510;52.140;5.034;2023-02-28T07:43:36;2.10;64.10
43862;DHT22;29510;52.140;5.034;2023-02-28T07:53:37;2.10;88.00
43862;DHT22;29510;52.140;5.034;2023-02-28T08:03:39;2.20;99.90
43862;DHT22;29510;52.140;5.034;2023-02-28T08:13:41;2.30;99.90
43862;DHT22;29510;52.140;5.034;2023-02-28T08:23:49;2.30;99.90
43862;DHT22;29510;52.140;5.034;2023-02-28T08:33:51;2.50;99.90
43862;DHT22;29510;52.140;5.034;2023-02-28T08:43:53;2.40;99.90
43862;DHT22;29510;52.140;5.034;2023-02-28T08:53:57;2.50;99.90
43862;DHT22;29510;52.140;5.034;2023-02-28T09:03:58;2.70;99.90
43862;DHT22;29510;52.140;5.034;2023-02-28T09:13:59;2.90;99.90
43862;DHT22;29510;52.140;5.034;2023-02-28T09:24:01;3.00;99.90
43862;DHT22;29510;52.140;5.034;2023-02-28T09:34:03;3.00;99.90
43862;DHT22;29510;52.140;5.034;2023-02-28T09:44:05;3.00;85.50
43862;DHT22;29510;52.140;5.034;2023-02-28T09:54:16;3.10;60.50
43862;DHT22;29510;52.140;5.034;2023-02-28T10:14:28;3.30;22.20
43862;DHT22;29510;52.140;5.034;2023-02-28T10:24:35;3.50;1.00
43862;DHT22;29510;52.140;5.034;2023-02-28T10:34:40;3.80;1.00
43862;DHT22;29510;52.140;5.034;2023-02-28T10:44:41;4.00;1.00
43862;DHT22;29510;52.140;5.034;2023-02-28T10:54:42;4.40;1.00
43862;DHT22;29510;52.140;5.034;2023-02-28T11:04:43;4.90;1.00
43862;DHT22;29510;52.140;5.034;2023-02-28T11:14:58;5.20;1.00
43862;DHT22;29510;52.140;5.034;2023-02-28T11:25:06;5.40;1.00
43862;DHT22;29510;52.140;5.034;2023-02-28T11:55:58;7.90;1.00
43862;DHT22;29510;52.140;5.034;2023-02-28T12:26:41;9.20;1.00
43862;DHT22;29510;52.140;5.034;2023-02-28T12:36:44;9.70;1.00
43862;DHT22;29510;52.140;5.034;2023-02-28T12:46:49;9.90;1.00
43862;DHT22;29510;52.140;5.034;2023-02-28T12:57:26;10.20;1.00
43862;DHT22;29510;52.140;5.034;2023-02-28T13:17:40;10.30;1.00
43862;DHT22;29510;52.140;5.034;2023-02-28T13:27:42;11.40;1.00
43862;DHT22;29510;52.140;5.034;2023-02-28T13:37:47;11.50;1.00
43862;DHT22;29510;52.140;5.034;2023-02-28T13:58:56;11.80;1.00
43862;DHT22;29510;52.140;5.034;2023-02-28T14:08:31;12.20;1.00
43862;DHT22;29510;52.140;5.034;2023-02-28T14:18:47;12.20;1.00
43862;DHT22;29510;52.140;5.034;2023-02-28T14:29:07;12.40;1.00
43862;DHT22;29510;52.140;5.034;2023-02-28T14:39:20;12.50;1.00
43862;DHT22;29510;52.140;5.034;2023-02-28T14:49:35;12.70;1.00
43862;DHT22;29510;52.140;5.034;2023-02-28T14:59:36;12.10;1.00
43862;DHT22;29510;52.140;5.034;2023-02-28T15:09:37;11.20;1.00
43862;DHT22;29510;52.140;5.034;2023-02-28T15:19:41;10.10;1.00
43862;DHT22;29510;52.140;5.034;2023-02-28T15:29:46;9.50;1.00
43862;DHT22;29510;52.140;5.034;2023-02-28T15:39:50;8.70;1.00
43862;DHT22;29510;52.140;5.034;2023-02-28T15:49:57;8.30;1.00
43862;DHT22;29510;52.140;5.034;2023-02-28T16:00:03;7.60;1.00
43862;DHT22;29510;52.140;5.034;2023-02-28T16:10:08;7.40;1.00
43862;DHT22;29510;52.140;5.034;2023-02-28T16:20:21;7.40;1.00
43862;DHT22;29510;52.140;5.034;2023-02-28T16:30:25;7.00;1.00
43862;DHT22;29510;52.140;5.034;2023-02-28T16:40:27;6.60;1.00
43862;DHT22;29510;52.140;5.034;2023-02-28T16:50:31;6.40;1.00
43862;DHT22;29510;52.140;5.034;2023-02-28T17:00:35;6.20;1.00
43862;DHT22;29510;52.140;5.034;2023-02-28T17:10:36;6.00;1.00
43862;DHT22;29510;52.140;5.034;2023-02-28T17:20:38;5.90;1.00
43862;DHT22;29510;52.140;5.034;2023-02-28T17:30:39;5.80;1.00
43862;DHT22;29510;52.140;5.034;2023-02-28T17:40:41;5.70;1.00
43862;DHT22;29510;52.140;5.034;2023-02-28T17:50:42;5.50;1.00
43862;DHT22;29510;52.140;5.034;2023-02-28T18:00:43;5.40;1.00
43862;DHT22;29510;52.140;5.034;2023-02-28T18:10:45;5.20;1.00
43862;DHT22;29510;52.140;5.034;2023-02-28T18:20:46;5.00;1.00
43862;DHT22;29510;52.140;5.034;2023-02-28T18:30:50;4.80;1.00
43862;DHT22;29510;52.140;5.034;2023-02-28T18:40:54;4.80;1.00
43862;DHT22;29510;52.140;5.034;2023-02-28T18:50:55;4.50;1.00
43862;DHT22;29510;52.140;5.034;2023-02-28T19:00:57;4.40;1.00
43862;DHT22;29510;52.140;5.034;2023-02-28T19:10:58;4.30;1.00
43862;DHT22;29510;52.140;5.034;2023-02-28T19:20:59;4.20;1.00
43862;DHT22;29510;52.140;5.034;2023-02-28T19:31:00;4.10;1.00
43862;DHT22;29510;52.140;5.034;2023-02-28T19:41:03;4.00;1.00
43862;DHT22;29510;52.140;5.034;2023-02-28T19:51:10;3.80;1.00
43862;DHT22;29510;52.140;5.034;2023-02-28T20:01:15;3.80;1.00
43862;DHT22;29510;52.140;5.034;2023-02-28T20:11:16;3.60;1.00
43862;DHT22;29510;52.140;5.034;2023-02-28T20:21:18;3.50;1.00
43862;DHT22;29510;52.140;5.034;2023-02-28T20:31:21;3.40;1.00
43862;DHT22;29510;52.140;5.034;2023-02-28T20:41:23;3.20;1.00
43862;DHT22;29510;52.140;5.034;2023-02-28T20:51:24;3.10;1.00
43862;DHT22;29510;52.140;5.034;2023-02-28T21:01:28;2.90;1.00
43862;DHT22;29510;52.140;5.034;2023-02-28T21:11:31;3.00;1.00
43862;DHT22;29510;52.140;5.034;2023-02-28T21:21:40;2.80;1.00
43862;DHT22;29510;52.140;5.034;2023-02-28T21:31:44;2.80;1.00
43862;DHT22;29510;52.140;5.034;2023-02-28T21:41:46;2.80;1.00
43862;DHT22;29510;52.140;5.034;2023-02-28T21:51:47;2.80;1.00
43862;DHT22;29510;52.140;5.034;2023-02-28T22:01:49;2.70;1.00
43862;DHT22;29510;52.140;5.034;2023-02-28T22:11:56;2.60;1.00
43862;DHT22;29510;52.140;5.034;2023-02-28T22:21:57;2.30;1.00
43862;DHT22;29510;52.140;5.034;2023-02-28T22:31:59;2.20;1.00
43862;DHT22;29510;52.140;5.034;2023-02-28T22:42:01;2.00;1.00
43862;DHT22;29510;52.140;5.034;2023-02-28T22:52:02;1.80;1.00
43862;DHT22;29510;52.140;5.034;2023-02-28T23:02:03;1.60;1.00
43862;DHT22;29510;52.140;5.034;2023-02-28T23:12:04;1.50;1.00
43862;DHT22;29510;52.140;5.034;2023-02-28T23:22:05;1.40;1.00
43862;DHT22;29510;52.140;5.034;2023-02-28T23:32:06;1.30;1.00
43862;DHT22;29510;52.140;5.034;2023-02-28T23:42:08;1.20;1.00
43862;DHT22;29510;52.140;5.034;2023-02-28T23:52:09;1.20;3.60
